Terminal Aerodrome Forecast
Issued by NWS

Home | Current Version | Previous Version | Text Only | Print | Product List | Glossary On
Versions: 1 2 3 4 5 6 7 8 9 10 11 12 13 14 15 16 17 18 19 20 21 22 23 24 25 26 27 28 29 30 31 32 33 34 35 36 37 38 39 40 41 42 43 44 45 46 47 48 49 50
507
FTUS44 KBMX 171619 AAB
TAFASN
TAF AMD
KASN 171619Z 1716/1812 19007KT P6SM OVC011
     FM171800 20010KT P6SM BKN025 BKN080
     FM172300 20010KT P6SM SHRA VCTS SCT015CB OVC025
     FM180500 20004KT 4SM BR OVC007
     FM180800 23005KT 4SM BR OVC004=

USA.gov is the U.S. government's official web portal to all federal, state and local government web resources and services.